createdAt,value
2022-10-18T00:01:03.677Z,69.15
2022-10-18T00:03:31.298Z,70.16
2022-10-18T00:06:00.919Z,69.45
2022-10-18T00:08:29.119Z,69.53
2022-10-18T00:10:57.109Z,69.56
2022-10-18T00:13:25.250Z,69.37
2022-10-18T00:15:58.580Z,69.92
2022-10-18T00:18:26.522Z,69.56
2022-10-18T00:21:02.443Z,69.60
2022-10-18T00:23:31.606Z,69.80
2022-10-18T00:26:04.436Z,70.10
2022-10-18T00:28:33.162Z,69.81
2022-10-18T00:31:31.171Z,69.86
2022-10-18T00:34:14.641Z,69.66
2022-10-18T00:36:43.441Z,69.97
2022-10-18T00:39:17.265Z,69.69
2022-10-18T00:41:45.696Z,69.52
2022-10-18T00:44:13.174Z,69.97
2022-10-18T00:46:46.179Z,70.68
2022-10-18T00:49:18.438Z,70.47
2022-10-18T00:51:53.877Z,69.92
2022-10-18T00:54:23.258Z,70.13
2022-10-18T00:56:51.263Z,70.35
2022-10-18T00:59:20.305Z,70.29
2022-10-18T01:01:50.973Z,70.59
2022-10-18T01:04:20.375Z,70.43
2022-10-18T01:07:20.017Z,71.09
2022-10-18T01:09:57.090Z,70.02
2022-10-18T01:12:56.328Z,70.18
2022-10-18T01:15:28.870Z,70.45
2022-10-18T01:18:13.416Z,70.90
2022-10-18T01:20:58.963Z,70.44
2022-10-18T01:23:40.092Z,70.47
2022-10-18T01:26:28.976Z,70.72
2022-10-18T01:29:14.408Z,70.20
2022-10-18T01:31:48.290Z,69.87
2022-10-18T01:34:18.899Z,70.68
2022-10-18T01:36:54.499Z,70.11
2022-10-18T01:39:33.970Z,70.82
2022-10-18T01:42:06.502Z,70.22
2022-10-18T01:44:35.375Z,70.46
2022-10-18T01:47:07.345Z,70.05
2022-10-18T01:49:34.830Z,70.36
2022-10-18T01:52:02.433Z,70.66
2022-10-18T01:54:48.679Z,70.52
2022-10-18T01:57:26.915Z,70.96
2022-10-18T02:00:24.174Z,70.60
2022-10-18T02:03:02.419Z,71.01
2022-10-18T02:05:40.968Z,70.77
2022-10-18T02:08:27.693Z,71.14
2022-10-18T02:11:01.196Z,70.15
2022-10-18T02:13:34.051Z,70.14
2022-10-18T02:16:27.368Z,69.84
2022-10-18T02:19:27.066Z,70.88
2022-10-18T02:21:56.891Z,70.92
2022-10-18T02:24:27.939Z,71.21
2022-10-18T02:26:55.390Z,70.59
2022-10-18T02:29:23.369Z,71.34
2022-10-18T02:31:57.106Z,70.93
2022-10-18T02:34:28.371Z,71.05
2022-10-18T02:36:59.854Z,70.76
2022-10-18T02:39:33.150Z,71.46
2022-10-18T02:42:00.772Z,71.62
2022-10-18T02:44:28.213Z,71.61
2022-10-18T02:46:56.066Z,71.60
2022-10-18T02:49:23.543Z,71.06
2022-10-18T02:51:51.097Z,71.54
2022-10-18T02:54:18.492Z,71.69
2022-10-18T02:56:46.347Z,71.50
2022-10-18T02:59:14.143Z,72.82
2022-10-18T03:01:42.454Z,72.37
2022-10-18T03:04:10.434Z,72.12
2022-10-18T03:06:38.191Z,72.00
2022-10-18T03:09:07.202Z,71.29
2022-10-18T03:11:35.960Z,71.72
2022-10-18T03:14:03.547Z,72.38
2022-10-18T03:16:31.780Z,71.90
2022-10-18T03:18:59.454Z,72.34
2022-10-18T03:21:27.827Z,73.01
2022-10-18T03:23:55.381Z,72.28
2022-10-18T03:26:22.874Z,72.32
2022-10-18T03:28:53.799Z,71.95
2022-10-18T03:31:22.374Z,72.45
2022-10-18T03:33:49.913Z,73.23
2022-10-18T03:36:18.847Z,73.24
2022-10-18T03:41:15.655Z,72.57
2022-10-18T03:43:45.511Z,72.86
2022-10-18T03:46:13.624Z,73.35
2022-10-18T03:48:41.162Z,73.57
2022-10-18T03:51:10.034Z,73.31
2022-10-18T03:53:39.004Z,72.97
2022-10-18T03:56:06.795Z,73.10
2022-10-18T04:01:09.699Z,74.37
2022-10-18T04:03:37.231Z,74.56
2022-10-18T04:06:04.880Z,73.83
2022-10-18T04:08:32.592Z,72.93
2022-10-18T04:11:00.051Z,72.28
2022-10-18T04:13:27.605Z,71.10
2022-10-18T04:15:55.090Z,70.75
2022-10-18T04:18:24.531Z,70.69
2022-10-18T04:20:52.347Z,70.49
2022-10-18T04:23:19.902Z,70.69
2022-10-18T04:25:49.284Z,69.78
2022-10-18T04:28:16.830Z,69.31
2022-10-18T04:30:44.526Z,69.41
2022-10-18T04:33:12.590Z,68.94
2022-10-18T04:35:40.154Z,67.26
2022-10-18T04:38:10.869Z,66.33
2022-10-18T04:40:39.236Z,66.55
2022-10-18T04:43:07.914Z,65.55
2022-10-18T04:45:37.709Z,65.96
2022-10-18T04:48:06.010Z,66.13
2022-10-18T04:50:33.858Z,66.45
2022-10-18T04:53:12.327Z,66.43
2022-10-18T04:55:39.826Z,66.25
2022-10-18T04:58:07.268Z,66.46
2022-10-18T05:00:39.832Z,66.75
2022-10-18T05:03:08.953Z,67.11
2022-10-18T05:05:49.563Z,66.66
2022-10-18T05:08:24.291Z,66.80
2022-10-18T05:10:52.971Z,67.28
2022-10-18T05:13:20.445Z,67.03
2022-10-18T05:15:52.039Z,66.76
2022-10-18T05:18:19.506Z,67.39
2022-10-18T05:20:47.382Z,67.34
2022-10-18T05:23:16.452Z,67.19
2022-10-18T05:25:44.998Z,67.73
2022-10-18T05:28:34.475Z,68.30
2022-10-18T05:31:12.062Z,69.32
2022-10-18T05:33:41.216Z,70.13
2022-10-18T05:36:11.532Z,70.10
2022-10-18T05:38:43.215Z,69.31
2022-10-18T05:41:13.079Z,69.13
2022-10-18T05:43:44.263Z,68.40
2022-10-18T05:46:15.560Z,66.82
2022-10-18T05:48:52.760Z,66.42
2022-10-18T05:51:20.294Z,66.87
2022-10-18T05:53:48.666Z,65.76
2022-10-18T05:56:16.497Z,64.44
2022-10-18T05:58:52.927Z,63.82
2022-10-18T06:01:23.516Z,63.14
2022-10-18T06:03:51.736Z,62.25
2022-10-18T06:06:19.557Z,62.17
2022-10-18T06:08:50.160Z,61.35
2022-10-18T06:11:22.857Z,60.45
2022-10-18T06:13:51.985Z,59.84
2022-10-18T06:16:22.853Z,58.00
2022-10-18T06:18:54.528Z,57.24
2022-10-18T06:21:24.766Z,56.81
2022-10-18T06:23:55.082Z,55.63
2022-10-18T06:26:24.411Z,54.72
2022-10-18T06:28:53.089Z,54.68
2022-10-18T06:34:56.656Z,52.57
2022-10-18T06:37:24.335Z,53.62
2022-10-18T06:40:27.734Z,51.47
2022-10-18T06:43:19.948Z,52.98
2022-10-18T06:46:03.661Z,52.43
2022-10-18T06:48:49.896Z,51.69
2022-10-18T06:51:19.552Z,50.55
2022-10-18T06:54:13.022Z,50.35
2022-10-18T06:56:42.054Z,49.36
2022-10-18T06:59:26.351Z,49.25
2022-10-18T07:02:55.569Z,47.00
2022-10-18T07:55:32.360Z,40.41
2022-10-18T07:58:01.553Z,40.33
2022-10-18T08:00:29.037Z,40.29
2022-10-18T08:02:57.695Z,39.48
2022-10-18T08:05:27.100Z,39.21
2022-10-18T08:07:54.996Z,38.91
2022-10-18T08:10:24.495Z,38.50
2022-10-18T08:12:53.992Z,38.25
2022-10-18T08:15:25.164Z,38.04
2022-10-18T08:17:54.740Z,37.75
2022-10-18T08:20:31.283Z,37.44
2022-10-18T08:23:00.629Z,37.45
2022-10-18T08:25:29.344Z,37.60
2022-10-18T08:27:57.380Z,37.28
2022-10-18T08:30:25.098Z,36.65
2022-10-18T08:32:55.702Z,36.80
2022-10-18T08:35:23.218Z,36.72
2022-10-18T08:37:51.503Z,36.35
2022-10-18T08:40:19.516Z,36.48
2022-10-18T08:43:27.553Z,35.52
2022-10-18T08:45:55.280Z,36.04
2022-10-18T08:48:34.999Z,35.60
2022-10-18T08:51:14.055Z,35.54
2022-10-18T08:53:54.795Z,33.75
2022-10-18T08:56:30.591Z,34.15
2022-10-18T08:58:58.020Z,34.34
2022-10-18T09:01:28.484Z,34.42
2022-10-18T09:04:08.061Z,33.69
2022-10-18T09:06:56.364Z,33.71
2022-10-18T09:09:39.476Z,33.44
2022-10-18T09:12:27.481Z,32.87
2022-10-18T09:15:35.493Z,32.82
2022-10-18T09:18:38.420Z,33.26
2022-10-18T09:21:19.447Z,32.77
2022-10-18T09:24:02.035Z,33.50
2022-10-18T09:26:41.021Z,33.50
2022-10-18T09:29:31.655Z,34.18
2022-10-18T09:32:11.275Z,34.81
2022-10-18T09:34:56.343Z,34.81
2022-10-18T09:37:25.949Z,34.64
2022-10-18T09:40:04.313Z,34.50
2022-10-18T09:42:39.617Z,33.44
2022-10-18T09:45:24.215Z,33.29
2022-10-18T09:48:02.604Z,33.28
2022-10-18T09:50:38.723Z,33.12
2022-10-18T09:53:23.784Z,32.77
2022-10-18T09:56:03.055Z,32.38
2022-10-18T09:58:44.348Z,31.67
2022-10-18T10:01:15.758Z,32.01
2022-10-18T10:03:43.432Z,31.71
2022-10-18T10:06:21.097Z,30.70
2022-10-18T10:08:54.230Z,31.57
2022-10-18T10:11:51.802Z,30.79
2022-10-18T10:14:26.724Z,31.99
2022-10-18T10:17:02.821Z,32.34
2022-10-18T10:19:35.052Z,32.27
2022-10-18T10:22:09.346Z,32.44
2022-10-18T10:24:57.758Z,32.21
2022-10-18T10:27:43.553Z,31.83
2022-10-18T10:30:38.838Z,32.59
2022-10-18T10:33:07.228Z,32.90
2022-10-18T10:35:55.818Z,32.79
2022-10-18T10:38:26.022Z,33.12
2022-10-18T10:40:54.241Z,33.37
2022-10-18T10:43:40.306Z,33.80
2022-10-18T10:46:12.420Z,34.19
2022-10-18T10:49:39.734Z,34.12
2022-10-18T10:52:15.663Z,34.54
2022-10-18T10:54:55.757Z,34.85
2022-10-18T10:57:29.515Z,34.99
2022-10-18T11:00:00.293Z,35.19
2022-10-18T11:02:36.325Z,35.33
2022-10-18T11:05:29.527Z,35.69
2022-10-18T11:08:04.017Z,35.52
2022-10-18T11:10:34.908Z,36.02
2022-10-18T11:13:24.284Z,36.26
2022-10-18T11:16:07.316Z,36.43
2022-10-18T11:18:38.511Z,36.72
2022-10-18T11:21:24.027Z,36.77
2022-10-18T11:23:51.732Z,36.93
2022-10-18T11:26:29.784Z,37.31
2022-10-18T11:29:25.340Z,37.59
2022-10-18T11:32:20.251Z,37.74
2022-10-18T11:35:00.050Z,37.91
2022-10-18T11:37:42.830Z,37.74
2022-10-18T11:40:29.356Z,38.12
2022-10-18T11:44:01.197Z,38.23
2022-10-18T11:46:30.476Z,38.55
2022-10-18T11:49:12.472Z,38.85
2022-10-18T11:52:08.715Z,39.03
2022-10-18T11:54:59.197Z,39.36
2022-10-18T11:57:45.561Z,39.67
2022-10-18T12:00:40.691Z,40.00
2022-10-18T12:03:45.644Z,40.25
2022-10-18T12:06:18.328Z,40.02
2022-10-18T12:08:50.881Z,40.03
2022-10-18T12:11:24.432Z,40.12
2022-10-18T12:13:58.048Z,40.35
2022-10-18T12:16:49.884Z,40.74
2022-10-18T12:19:27.376Z,40.57
2022-10-18T12:22:28.715Z,40.93
2022-10-18T12:24:56.300Z,40.63
2022-10-18T12:27:39.878Z,41.18
2022-10-18T12:30:19.802Z,41.19
2022-10-18T12:33:02.238Z,41.13
2022-10-18T12:36:19.629Z,41.80
2022-10-18T12:38:55.447Z,41.31
2022-10-18T12:41:28.054Z,41.29
2022-10-18T12:44:03.409Z,41.57
2022-10-18T12:47:04.718Z,41.63
2022-10-18T12:49:40.204Z,41.79
2022-10-18T12:52:25.083Z,41.70
2022-10-18T12:55:06.121Z,42.06
2022-10-18T12:57:52.265Z,41.99
2022-10-18T13:00:31.856Z,42.35
2022-10-18T13:03:25.449Z,42.74
2022-10-18T13:05:55.308Z,42.41
2022-10-18T13:08:35.102Z,42.52
2022-10-18T13:11:08.346Z,42.82
2022-10-18T13:13:44.819Z,42.67
2022-10-18T13:16:21.557Z,43.04
2022-10-18T13:18:59.809Z,43.08
2022-10-18T13:21:55.905Z,43.30
2022-10-18T13:24:52.854Z,43.40
2022-10-18T13:27:47.963Z,43.48
2022-10-18T13:30:33.155Z,43.51
2022-10-18T13:33:22.717Z,43.45
2022-10-18T13:35:52.580Z,43.37
2022-10-18T13:38:46.976Z,43.45
2022-10-18T13:41:19.284Z,43.61
2022-10-18T13:44:03.180Z,44.01
2022-10-18T13:46:33.608Z,43.67
2022-10-18T13:49:25.223Z,43.93
2022-10-18T13:52:30.523Z,44.28
2022-10-18T13:55:23.591Z,43.93
2022-10-18T13:58:11.175Z,44.09
2022-10-18T14:00:56.788Z,44.81
2022-10-18T14:03:58.365Z,45.22
2022-10-18T14:06:28.676Z,45.06
2022-10-18T14:09:32.761Z,45.29
2022-10-18T14:12:21.591Z,45.46
2022-10-18T14:15:26.401Z,46.10
2022-10-18T14:17:57.733Z,45.40
2022-10-18T14:20:55.312Z,45.41
2022-10-18T14:23:54.914Z,45.54
2022-10-18T14:26:23.109Z,45.69
2022-10-18T14:29:15.787Z,46.11
2022-10-18T14:31:50.113Z,45.60
2022-10-18T14:34:17.765Z,45.82
2022-10-18T14:36:48.153Z,46.20
2022-10-18T14:39:27.696Z,45.86
2022-10-18T14:41:57.040Z,46.14
2022-10-18T14:44:27.512Z,46.18
2022-10-18T14:47:16.621Z,46.66
2022-10-18T14:49:46.134Z,46.92
2022-10-18T14:52:17.415Z,47.18
2022-10-18T14:54:45.721Z,46.78
2022-10-18T14:57:21.971Z,47.28
2022-10-18T14:59:53.976Z,47.43
2022-10-18T15:02:33.479Z,47.47
2022-10-18T15:05:25.257Z,47.68
2022-10-18T15:07:54.123Z,47.79
2022-10-18T15:10:27.825Z,48.09
2022-10-18T15:13:16.916Z,47.73
2022-10-18T15:15:45.505Z,48.02
2022-10-18T15:18:24.837Z,48.49
2022-10-18T15:21:09.724Z,49.09
2022-10-18T15:23:37.202Z,49.02
2022-10-18T15:26:12.977Z,48.93
2022-10-18T15:28:57.509Z,49.39
2022-10-18T15:31:29.582Z,49.31
2022-10-18T15:34:15.760Z,49.95
2022-10-18T15:39:29.626Z,50.26
2022-10-18T15:42:02.614Z,49.81
2022-10-18T15:44:51.181Z,50.90
2022-10-18T15:47:24.677Z,50.26
2022-10-18T15:49:59.557Z,50.72
2022-10-18T15:52:38.502Z,51.14
2022-10-18T15:55:29.525Z,52.50
2022-10-18T15:58:21.768Z,52.12
2022-10-18T16:00:51.290Z,52.12
2022-10-18T16:03:22.460Z,51.95
2022-10-18T16:05:54.695Z,52.00
2022-10-18T16:08:25.692Z,51.66
2022-10-18T16:10:53.341Z,52.29
2022-10-18T16:13:20.915Z,51.60
2022-10-18T16:15:48.517Z,52.10
2022-10-18T16:18:19.359Z,52.52
2022-10-18T16:20:48.469Z,52.15
2022-10-18T16:23:25.440Z,52.54
2022-10-18T16:25:54.099Z,53.00
2022-10-18T16:28:24.521Z,52.46
2022-10-18T16:30:59.210Z,53.01
2022-10-18T16:33:27.281Z,52.62
2022-10-18T16:35:54.837Z,52.88
2022-10-18T16:38:35.546Z,53.20
2022-10-18T16:41:05.707Z,53.09
2022-10-18T16:43:34.850Z,53.20
2022-10-18T16:46:03.455Z,53.38
2022-10-18T16:48:30.965Z,53.72
2022-10-18T16:50:59.113Z,54.00
2022-10-18T16:53:28.248Z,53.97
2022-10-18T16:55:59.202Z,53.95
2022-10-18T16:58:29.120Z,54.05
2022-10-18T17:00:57.833Z,54.39
2022-10-18T17:03:26.474Z,54.25
2022-10-18T17:05:54.694Z,54.66
2022-10-18T17:08:28.364Z,54.91
2022-10-18T17:11:00.525Z,55.16
2022-10-18T17:13:28.074Z,55.37
2022-10-18T17:15:56.534Z,55.31
2022-10-18T17:18:30.841Z,55.41
2022-10-18T17:21:02.041Z,55.00
2022-10-18T17:26:28.793Z,54.86
2022-10-18T17:29:00.772Z,55.04
2022-10-18T17:31:29.791Z,55.28
2022-10-18T17:33:58.893Z,55.32
2022-10-18T17:36:26.427Z,55.70
2022-10-18T17:38:55.031Z,55.27
2022-10-18T17:41:22.639Z,54.96
2022-10-18T17:43:50.387Z,55.63
2022-10-18T17:46:20.701Z,55.52
2022-10-18T17:48:48.200Z,55.71
2022-10-18T17:51:20.012Z,55.90
2022-10-18T17:53:47.589Z,55.86
2022-10-18T17:56:16.285Z,55.71
2022-10-18T17:58:43.923Z,55.58
2022-10-18T18:01:17.689Z,55.63
2022-10-18T18:03:45.686Z,55.72
2022-10-18T18:06:15.488Z,55.19
2022-10-18T18:08:43.153Z,55.82
2022-10-18T18:11:10.654Z,55.78
2022-10-18T18:13:38.230Z,55.50
2022-10-18T18:16:21.093Z,55.65
2022-10-18T18:18:51.414Z,55.48
2022-10-18T18:21:20.119Z,55.31
2022-10-18T18:23:48.539Z,55.20
2022-10-18T18:26:18.312Z,55.54
2022-10-18T18:28:46.277Z,55.05
2022-10-18T18:31:25.460Z,55.30
2022-10-18T18:33:54.980Z,55.13
2022-10-18T18:36:24.020Z,55.40
2022-10-18T18:38:56.842Z,55.22
2022-10-18T18:41:26.961Z,55.06
2022-10-18T18:44:02.770Z,55.34
2022-10-18T18:46:34.480Z,55.51
2022-10-18T18:49:02.445Z,55.21
2022-10-18T18:51:29.956Z,54.92
2022-10-18T18:53:57.424Z,55.02
2022-10-18T18:56:27.383Z,55.07
2022-10-18T18:58:55.484Z,55.15
2022-10-18T19:01:25.666Z,55.27
2022-10-18T19:03:55.647Z,55.15
2022-10-18T19:06:26.428Z,55.32
2022-10-18T19:09:00.450Z,55.22
2022-10-18T19:11:33.413Z,55.11
2022-10-18T19:14:01.617Z,54.67
2022-10-18T19:16:30.415Z,54.85
2022-10-18T19:18:59.557Z,55.21
2022-10-18T19:21:30.049Z,55.06
2022-10-18T19:23:58.850Z,54.85
2022-10-18T19:26:47.749Z,54.84
2022-10-18T19:29:23.655Z,54.83
2022-10-18T19:31:53.003Z,54.64
2022-10-18T19:34:21.706Z,54.50
2022-10-18T19:36:50.149Z,54.71
2022-10-18T19:39:35.508Z,54.35
2022-10-18T19:42:05.893Z,54.23
2022-10-18T19:44:36.252Z,54.16
2022-10-18T19:47:05.236Z,54.24
2022-10-18T19:49:32.920Z,54.31
2022-10-18T19:52:00.377Z,53.95
2022-10-18T19:54:38.480Z,53.81
2022-10-18T19:57:05.916Z,53.89
2022-10-18T19:59:34.520Z,53.87
2022-10-18T20:02:02.134Z,53.77
2022-10-18T20:04:34.363Z,53.91
2022-10-18T20:07:03.046Z,54.22
2022-10-18T20:09:30.617Z,54.06
2022-10-18T20:11:58.049Z,54.54
2022-10-18T20:14:25.711Z,54.25
2022-10-18T20:16:53.228Z,54.08
2022-10-18T20:19:20.692Z,54.04
2022-10-18T20:21:48.162Z,54.34
2022-10-18T20:24:15.663Z,54.00
2022-10-18T20:26:44.013Z,54.20
2022-10-18T20:29:11.584Z,54.44
2022-10-18T20:31:39.544Z,54.29
2022-10-18T20:34:11.072Z,54.45
2022-10-18T20:36:39.152Z,54.20
2022-10-18T20:39:08.011Z,53.98
2022-10-18T20:41:41.322Z,53.90
2022-10-18T20:44:13.525Z,54.35
2022-10-18T20:46:41.144Z,54.16
2022-10-18T20:49:11.826Z,54.24
2022-10-18T20:51:39.633Z,54.42
2022-10-18T20:54:08.699Z,53.92
2022-10-18T20:56:38.052Z,54.00
2022-10-18T20:59:10.046Z,54.79
2022-10-18T21:01:39.495Z,54.43
2022-10-18T21:04:09.293Z,54.72
2022-10-18T21:06:43.002Z,54.40
2022-10-18T21:09:16.208Z,55.02
2022-10-18T21:11:49.695Z,55.04
2022-10-18T21:14:20.398Z,54.88
2022-10-18T21:16:49.088Z,55.10
2022-10-18T21:19:24.141Z,55.13
2022-10-18T21:21:54.611Z,54.74
2022-10-18T21:24:23.908Z,54.47
2022-10-18T21:26:51.509Z,54.56
2022-10-18T21:29:22.183Z,55.08
2022-10-18T21:31:52.907Z,54.78
2022-10-18T21:34:20.356Z,55.07
2022-10-18T21:36:48.617Z,54.73
2022-10-18T21:41:54.619Z,55.04
2022-10-18T21:44:22.229Z,54.65
2022-10-18T21:46:50.073Z,54.97
2022-10-18T21:49:17.910Z,54.71
2022-10-18T21:51:45.493Z,54.89
2022-10-18T21:54:15.528Z,55.66
2022-10-18T21:56:43.647Z,55.03
2022-10-18T21:59:14.474Z,55.49
2022-10-18T22:01:49.785Z,55.54
2022-10-18T22:04:25.290Z,55.49
2022-10-18T22:06:52.872Z,55.57
2022-10-18T22:09:21.527Z,55.59
2022-10-18T22:11:51.792Z,55.70
2022-10-18T22:14:19.422Z,55.33
2022-10-18T22:16:46.942Z,55.54
2022-10-18T22:19:14.498Z,55.60
2022-10-18T22:21:41.934Z,55.54
2022-10-18T22:24:10.717Z,55.97
2022-10-18T22:26:43.166Z,55.72
2022-10-18T22:29:14.079Z,56.11
2022-10-18T22:31:44.625Z,55.98
2022-10-18T22:34:15.010Z,56.11
2022-10-18T22:36:42.624Z,56.29
2022-10-18T22:39:11.006Z,55.85
2022-10-18T22:41:38.432Z,56.18
2022-10-18T22:44:06.170Z,56.29
2022-10-18T22:46:33.684Z,56.14
2022-10-18T22:49:01.336Z,55.99
2022-10-18T22:51:28.829Z,55.69
2022-10-18T22:53:56.503Z,56.25
2022-10-18T22:56:25.203Z,55.73
2022-10-18T22:58:53.081Z,56.24
2022-10-18T23:01:23.421Z,55.97
2022-10-18T23:03:59.241Z,56.07
2022-10-18T23:06:30.069Z,56.45
2022-10-18T23:08:59.660Z,56.40
2022-10-18T23:11:32.215Z,56.08
2022-10-18T23:13:59.697Z,56.26
2022-10-18T23:16:28.006Z,56.63
2022-10-18T23:18:57.179Z,56.83
2022-10-18T23:21:29.403Z,56.62
2022-10-18T23:24:06.770Z,56.66
2022-10-18T23:26:34.998Z,56.92
2022-10-18T23:29:03.003Z,56.76
2022-10-18T23:31:34.018Z,56.90
2022-10-18T23:34:03.694Z,56.94
2022-10-18T23:36:33.744Z,57.39
2022-10-18T23:39:01.424Z,56.93
2022-10-18T23:41:29.021Z,56.92
2022-10-18T23:43:56.720Z,57.03
2022-10-18T23:46:25.323Z,56.81
2022-10-18T23:48:52.762Z,57.17
2022-10-18T23:51:20.294Z,57.26
2022-10-18T23:53:48.697Z,57.48
2022-10-18T23:56:19.192Z,57.66
2022-10-18T23:58:46.859Z,57.42
